sensor_id;sensor_type;location;lat;lon;timestamp;P1;durP1;ratioP1;P2;durP2;ratioP2
36457;SDS011;22480;50.546;12.292;2023-05-10T00:02:23;4.60;;;2.90;;
36457;SDS011;22480;50.546;12.292;2023-05-10T00:04:49;3.50;;;2.60;;
36457;SDS011;22480;50.546;12.292;2023-05-10T00:07:15;5.28;;;2.65;;
36457;SDS011;22480;50.546;12.292;2023-05-10T00:09:42;4.05;;;2.70;;
36457;SDS011;22480;50.546;12.292;2023-05-10T00:12:09;5.18;;;2.33;;
36457;SDS011;22480;50.546;12.292;2023-05-10T00:14:34;3.13;;;2.20;;
36457;SDS011;22480;50.546;12.292;2023-05-10T00:17:00;3.47;;;2.80;;
36457;SDS011;22480;50.546;12.292;2023-05-10T00:19:26;2.97;;;2.15;;
36457;SDS011;22480;50.546;12.292;2023-05-10T00:21:52;5.35;;;2.85;;
36457;SDS011;22480;50.546;12.292;2023-05-10T00:24:17;3.50;;;2.67;;
36457;SDS011;22480;50.546;12.292;2023-05-10T00:26:43;4.57;;;2.92;;
36457;SDS011;22480;50.546;12.292;2023-05-10T00:29:09;5.85;;;2.45;;
36457;SDS011;22480;50.546;12.292;2023-05-10T00:31:34;4.60;;;2.80;;
36457;SDS011;22480;50.546;12.292;2023-05-10T00:34:00;5.85;;;2.60;;
36457;SDS011;22480;50.546;12.292;2023-05-10T00:36:26;5.75;;;2.50;;
36457;SDS011;22480;50.546;12.292;2023-05-10T00:38:52;2.97;;;2.60;;
36457;SDS011;22480;50.546;12.292;2023-05-10T00:41:18;3.60;;;2.80;;
36457;SDS011;22480;50.546;12.292;2023-05-10T00:43:44;5.53;;;2.63;;
36457;SDS011;22480;50.546;12.292;2023-05-10T00:46:10;3.78;;;2.55;;
36457;SDS011;22480;50.546;12.292;2023-05-10T00:48:36;3.20;;;2.90;;
36457;SDS011;22480;50.546;12.292;2023-05-10T00:51:02;6.72;;;2.60;;
36457;SDS011;22480;50.546;12.292;2023-05-10T00:53:28;5.32;;;2.50;;
36457;SDS011;22480;50.546;12.292;2023-05-10T00:55:57;3.53;;;2.30;;
36457;SDS011;22480;50.546;12.292;2023-05-10T00:58:23;3.22;;;2.47;;
36457;SDS011;22480;50.546;12.292;2023-05-10T01:00:53;5.15;;;2.58;;
36457;SDS011;22480;50.546;12.292;2023-05-10T01:03:20;2.60;;;2.10;;
36457;SDS011;22480;50.546;12.292;2023-05-10T01:05:46;3.03;;;2.33;;
36457;SDS011;22480;50.546;12.292;2023-05-10T01:08:12;3.13;;;2.55;;
36457;SDS011;22480;50.546;12.292;2023-05-10T01:10:38;3.20;;;2.33;;
36457;SDS011;22480;50.546;12.292;2023-05-10T01:13:04;3.33;;;2.30;;
36457;SDS011;22480;50.546;12.292;2023-05-10T01:15:30;2.50;;;2.30;;
36457;SDS011;22480;50.546;12.292;2023-05-10T01:17:57;4.93;;;2.63;;
36457;SDS011;22480;50.546;12.292;2023-05-10T01:20:23;3.63;;;2.35;;
36457;SDS011;22480;50.546;12.292;2023-05-10T01:28:47;4.05;;;2.88;;
36457;SDS011;22480;50.546;12.292;2023-05-10T01:34:16;5.18;;;2.60;;
36457;SDS011;22480;50.546;12.292;2023-05-10T01:36:51;4.82;;;2.80;;
36457;SDS011;22480;50.546;12.292;2023-05-10T01:39:24;3.33;;;2.70;;
36457;SDS011;22480;50.546;12.292;2023-05-10T01:42:06;4.15;;;2.83;;
36457;SDS011;22480;50.546;12.292;2023-05-10T01:47:14;2.80;;;2.45;;
36457;SDS011;22480;50.546;12.292;2023-05-10T01:49:50;3.75;;;2.95;;
36457;SDS011;22480;50.546;12.292;2023-05-10T01:52:25;3.10;;;2.55;;
36457;SDS011;22480;50.546;12.292;2023-05-10T01:54:55;3.28;;;2.67;;
36457;SDS011;22480;50.546;12.292;2023-05-10T01:57:27;4.20;;;2.80;;
36457;SDS011;22480;50.546;12.292;2023-05-10T01:59:59;4.15;;;2.70;;
36457;SDS011;22480;50.546;12.292;2023-05-10T02:02:40;7.70;;;3.10;;
36457;SDS011;22480;50.546;12.292;2023-05-10T02:05:10;3.90;;;2.90;;
36457;SDS011;22480;50.546;12.292;2023-05-10T02:07:37;3.03;;;2.40;;
36457;SDS011;22480;50.546;12.292;2023-05-10T02:10:06;3.20;;;2.58;;
36457;SDS011;22480;50.546;12.292;2023-05-10T02:12:39;5.05;;;3.10;;
36457;SDS011;22480;50.546;12.292;2023-05-10T02:15:07;4.05;;;2.72;;
36457;SDS011;22480;50.546;12.292;2023-05-10T02:17:37;6.47;;;2.75;;
36457;SDS011;22480;50.546;12.292;2023-05-10T02:20:04;5.32;;;3.08;;
36457;SDS011;22480;50.546;12.292;2023-05-10T02:22:37;3.58;;;2.55;;
36457;SDS011;22480;50.546;12.292;2023-05-10T02:25:05;7.15;;;2.90;;
36457;SDS011;22480;50.546;12.292;2023-05-10T02:27:33;5.13;;;2.85;;
36457;SDS011;22480;50.546;12.292;2023-05-10T02:29:59;3.88;;;2.45;;
36457;SDS011;22480;50.546;12.292;2023-05-10T02:32:26;4.70;;;2.72;;
36457;SDS011;22480;50.546;12.292;2023-05-10T02:34:55;3.05;;;2.75;;
36457;SDS011;22480;50.546;12.292;2023-05-10T02:37:22;4.97;;;2.97;;
36457;SDS011;22480;50.546;12.292;2023-05-10T02:39:49;3.47;;;3.10;;
36457;SDS011;22480;50.546;12.292;2023-05-10T02:42:17;2.75;;;2.40;;
36457;SDS011;22480;50.546;12.292;2023-05-10T02:44:45;4.28;;;2.78;;
36457;SDS011;22480;50.546;12.292;2023-05-10T02:47:14;5.00;;;3.13;;
36457;SDS011;22480;50.546;12.292;2023-05-10T02:49:39;5.38;;;2.60;;
36457;SDS011;22480;50.546;12.292;2023-05-10T02:52:05;4.68;;;2.75;;
36457;SDS011;22480;50.546;12.292;2023-05-10T02:54:34;6.22;;;2.75;;
36457;SDS011;22480;50.546;12.292;2023-05-10T02:57:08;3.35;;;2.78;;
36457;SDS011;22480;50.546;12.292;2023-05-10T02:59:40;3.72;;;2.70;;
36457;SDS011;22480;50.546;12.292;2023-05-10T03:02:08;4.13;;;2.72;;
36457;SDS011;22480;50.546;12.292;2023-05-10T03:04:35;4.72;;;2.78;;
36457;SDS011;22480;50.546;12.292;2023-05-10T03:07:01;5.00;;;2.80;;
36457;SDS011;22480;50.546;12.292;2023-05-10T03:09:27;3.85;;;2.92;;
36457;SDS011;22480;50.546;12.292;2023-05-10T03:15:03;2.97;;;2.42;;
36457;SDS011;22480;50.546;12.292;2023-05-10T03:17:59;3.65;;;2.67;;
36457;SDS011;22480;50.546;12.292;2023-05-10T03:20:31;4.20;;;2.65;;
36457;SDS011;22480;50.546;12.292;2023-05-10T03:23:08;2.78;;;2.10;;
36457;SDS011;22480;50.546;12.292;2023-05-10T03:25:39;4.15;;;3.10;;
36457;SDS011;22480;50.546;12.292;2023-05-10T03:28:06;3.40;;;2.72;;
36457;SDS011;22480;50.546;12.292;2023-05-10T03:30:34;3.10;;;2.55;;
36457;SDS011;22480;50.546;12.292;2023-05-10T03:33:04;5.15;;;3.17;;
36457;SDS011;22480;50.546;12.292;2023-05-10T03:35:32;4.60;;;2.80;;
36457;SDS011;22480;50.546;12.292;2023-05-10T03:37:58;2.88;;;2.50;;
36457;SDS011;22480;50.546;12.292;2023-05-10T03:40:24;4.63;;;3.00;;
36457;SDS011;22480;50.546;12.292;2023-05-10T03:42:51;5.50;;;3.15;;
36457;SDS011;22480;50.546;12.292;2023-05-10T03:45:16;3.58;;;2.75;;
36457;SDS011;22480;50.546;12.292;2023-05-10T03:47:42;3.25;;;2.83;;
36457;SDS011;22480;50.546;12.292;2023-05-10T03:50:09;4.30;;;2.90;;
36457;SDS011;22480;50.546;12.292;2023-05-10T03:52:35;3.55;;;2.88;;
36457;SDS011;22480;50.546;12.292;2023-05-10T03:55:01;3.42;;;2.83;;
36457;SDS011;22480;50.546;12.292;2023-05-10T03:57:28;4.55;;;3.08;;
36457;SDS011;22480;50.546;12.292;2023-05-10T03:59:54;5.63;;;3.17;;
36457;SDS011;22480;50.546;12.292;2023-05-10T04:02:20;5.20;;;2.75;;
36457;SDS011;22480;50.546;12.292;2023-05-10T04:04:45;4.65;;;3.10;;
36457;SDS011;22480;50.546;12.292;2023-05-10T04:07:11;4.65;;;2.60;;
36457;SDS011;22480;50.546;12.292;2023-05-10T04:09:37;3.38;;;2.72;;
36457;SDS011;22480;50.546;12.292;2023-05-10T04:12:02;6.75;;;3.10;;
36457;SDS011;22480;50.546;12.292;2023-05-10T04:14:28;5.90;;;3.13;;
36457;SDS011;22480;50.546;12.292;2023-05-10T04:16:54;4.47;;;2.97;;
36457;SDS011;22480;50.546;12.292;2023-05-10T04:19:20;4.22;;;3.10;;
36457;SDS011;22480;50.546;12.292;2023-05-10T04:21:46;4.95;;;2.95;;
36457;SDS011;22480;50.546;12.292;2023-05-10T04:24:11;5.55;;;2.90;;
36457;SDS011;22480;50.546;12.292;2023-05-10T04:26:37;3.80;;;2.70;;
36457;SDS011;22480;50.546;12.292;2023-05-10T04:29:03;2.97;;;2.70;;
36457;SDS011;22480;50.546;12.292;2023-05-10T04:31:28;4.85;;;2.70;;
36457;SDS011;22480;50.546;12.292;2023-05-10T04:33:54;2.92;;;2.47;;
36457;SDS011;22480;50.546;12.292;2023-05-10T04:36:20;3.92;;;2.60;;
36457;SDS011;22480;50.546;12.292;2023-05-10T04:38:45;5.60;;;3.20;;
36457;SDS011;22480;50.546;12.292;2023-05-10T04:41:11;5.18;;;2.90;;
36457;SDS011;22480;50.546;12.292;2023-05-10T04:43:37;4.90;;;3.13;;
36457;SDS011;22480;50.546;12.292;2023-05-10T04:46:03;6.07;;;3.22;;
36457;SDS011;22480;50.546;12.292;2023-05-10T04:48:29;5.03;;;2.60;;
36457;SDS011;22480;50.546;12.292;2023-05-10T04:50:55;3.05;;;2.75;;
36457;SDS011;22480;50.546;12.292;2023-05-10T04:53:21;5.15;;;3.08;;
36457;SDS011;22480;50.546;12.292;2023-05-10T04:55:47;4.97;;;2.63;;
36457;SDS011;22480;50.546;12.292;2023-05-10T04:58:13;3.85;;;2.65;;
36457;SDS011;22480;50.546;12.292;2023-05-10T05:00:38;5.50;;;2.58;;
36457;SDS011;22480;50.546;12.292;2023-05-10T05:03:04;6.15;;;3.13;;
36457;SDS011;22480;50.546;12.292;2023-05-10T05:05:30;4.78;;;2.75;;
36457;SDS011;22480;50.546;12.292;2023-05-10T05:07:56;4.07;;;2.92;;
36457;SDS011;22480;50.546;12.292;2023-05-10T05:10:21;4.63;;;2.67;;
36457;SDS011;22480;50.546;12.292;2023-05-10T05:12:47;4.25;;;3.10;;
36457;SDS011;22480;50.546;12.292;2023-05-10T05:15:13;5.60;;;2.63;;
36457;SDS011;22480;50.546;12.292;2023-05-10T05:17:40;6.18;;;2.90;;
36457;SDS011;22480;50.546;12.292;2023-05-10T05:20:06;3.80;;;2.90;;
36457;SDS011;22480;50.546;12.292;2023-05-10T05:22:33;4.15;;;3.00;;
36457;SDS011;22480;50.546;12.292;2023-05-10T05:24:58;4.97;;;2.97;;
36457;SDS011;22480;50.546;12.292;2023-05-10T05:27:24;6.13;;;2.95;;
36457;SDS011;22480;50.546;12.292;2023-05-10T05:29:54;7.07;;;3.00;;
36457;SDS011;22480;50.546;12.292;2023-05-10T05:32:20;3.78;;;2.85;;
36457;SDS011;22480;50.546;12.292;2023-05-10T05:34:46;3.63;;;3.00;;
36457;SDS011;22480;50.546;12.292;2023-05-10T05:37:15;3.78;;;3.00;;
36457;SDS011;22480;50.546;12.292;2023-05-10T05:39:43;3.13;;;2.67;;
36457;SDS011;22480;50.546;12.292;2023-05-10T05:42:09;4.88;;;2.85;;
36457;SDS011;22480;50.546;12.292;2023-05-10T05:44:35;4.88;;;2.97;;
36457;SDS011;22480;50.546;12.292;2023-05-10T05:47:02;5.72;;;3.10;;
36457;SDS011;22480;50.546;12.292;2023-05-10T05:49:27;4.53;;;3.67;;
36457;SDS011;22480;50.546;12.292;2023-05-10T05:51:53;3.63;;;3.05;;
36457;SDS011;22480;50.546;12.292;2023-05-10T05:54:19;4.78;;;3.40;;
36457;SDS011;22480;50.546;12.292;2023-05-10T05:56:45;4.78;;;3.15;;
36457;SDS011;22480;50.546;12.292;2023-05-10T05:59:11;3.38;;;2.97;;
36457;SDS011;22480;50.546;12.292;2023-05-10T06:01:37;3.97;;;2.95;;
36457;SDS011;22480;50.546;12.292;2023-05-10T06:04:02;5.22;;;3.25;;
36457;SDS011;22480;50.546;12.292;2023-05-10T06:06:28;3.33;;;3.03;;
36457;SDS011;22480;50.546;12.292;2023-05-10T06:08:54;3.50;;;3.08;;
36457;SDS011;22480;50.546;12.292;2023-05-10T06:11:20;4.95;;;3.25;;
36457;SDS011;22480;50.546;12.292;2023-05-10T06:13:49;4.00;;;3.05;;
36457;SDS011;22480;50.546;12.292;2023-05-10T06:16:15;4.00;;;3.42;;
36457;SDS011;22480;50.546;12.292;2023-05-10T06:18:41;4.35;;;3.53;;
36457;SDS011;22480;50.546;12.292;2023-05-10T06:21:06;5.80;;;3.55;;
36457;SDS011;22480;50.546;12.292;2023-05-10T06:23:32;4.60;;;3.60;;
36457;SDS011;22480;50.546;12.292;2023-05-10T06:25:58;7.63;;;3.63;;
36457;SDS011;22480;50.546;12.292;2023-05-10T06:28:23;5.43;;;3.95;;
36457;SDS011;22480;50.546;12.292;2023-05-10T06:30:49;4.97;;;3.67;;
36457;SDS011;22480;50.546;12.292;2023-05-10T06:33:15;4.53;;;3.78;;
36457;SDS011;22480;50.546;12.292;2023-05-10T06:35:41;7.53;;;4.30;;
36457;SDS011;22480;50.546;12.292;2023-05-10T06:38:06;8.25;;;4.40;;
36457;SDS011;22480;50.546;12.292;2023-05-10T06:40:32;7.38;;;4.70;;
36457;SDS011;22480;50.546;12.292;2023-05-10T06:42:58;5.65;;;4.15;;
36457;SDS011;22480;50.546;12.292;2023-05-10T06:45:24;6.18;;;4.20;;
36457;SDS011;22480;50.546;12.292;2023-05-10T06:47:49;6.28;;;4.30;;
36457;SDS011;22480;50.546;12.292;2023-05-10T06:50:15;4.85;;;4.38;;
36457;SDS011;22480;50.546;12.292;2023-05-10T06:52:41;5.88;;;4.50;;
36457;SDS011;22480;50.546;12.292;2023-05-10T06:55:06;8.10;;;4.93;;
36457;SDS011;22480;50.546;12.292;2023-05-10T06:57:33;6.40;;;4.93;;
36457;SDS011;22480;50.546;12.292;2023-05-10T06:59:59;5.13;;;4.63;;
36457;SDS011;22480;50.546;12.292;2023-05-10T07:02:25;11.93;;;7.03;;
36457;SDS011;22480;50.546;12.292;2023-05-10T07:04:52;6.57;;;5.15;;
36457;SDS011;22480;50.546;12.292;2023-05-10T07:07:18;7.00;;;5.30;;
36457;SDS011;22480;50.546;12.292;2023-05-10T07:09:44;6.97;;;5.10;;
36457;SDS011;22480;50.546;12.292;2023-05-10T07:12:10;6.75;;;5.90;;
36457;SDS011;22480;50.546;12.292;2023-05-10T07:14:35;7.82;;;6.43;;
36457;SDS011;22480;50.546;12.292;2023-05-10T07:17:01;8.50;;;6.32;;
36457;SDS011;22480;50.546;12.292;2023-05-10T07:19:26;8.20;;;6.50;;
36457;SDS011;22480;50.546;12.292;2023-05-10T07:21:54;10.48;;;5.75;;
36457;SDS011;22480;50.546;12.292;2023-05-10T07:24:20;7.25;;;5.28;;
36457;SDS011;22480;50.546;12.292;2023-05-10T07:26:46;6.72;;;5.95;;
36457;SDS011;22480;50.546;12.292;2023-05-10T07:29:11;10.00;;;5.68;;
36457;SDS011;22480;50.546;12.292;2023-05-10T07:31:37;8.40;;;5.97;;
36457;SDS011;22480;50.546;12.292;2023-05-10T07:34:03;7.75;;;5.57;;
36457;SDS011;22480;50.546;12.292;2023-05-10T07:36:29;7.47;;;5.97;;
36457;SDS011;22480;50.546;12.292;2023-05-10T07:38:54;8.38;;;5.60;;
36457;SDS011;22480;50.546;12.292;2023-05-10T07:41:21;9.45;;;5.97;;
36457;SDS011;22480;50.546;12.292;2023-05-10T07:43:47;6.47;;;5.53;;
36457;SDS011;22480;50.546;12.292;2023-05-10T07:46:13;7.40;;;5.15;;
36457;SDS011;22480;50.546;12.292;2023-05-10T07:48:38;5.95;;;4.20;;
36457;SDS011;22480;50.546;12.292;2023-05-10T07:51:04;7.22;;;4.90;;
36457;SDS011;22480;50.546;12.292;2023-05-10T07:53:32;6.78;;;5.13;;
36457;SDS011;22480;50.546;12.292;2023-05-10T07:55:58;6.07;;;5.13;;
36457;SDS011;22480;50.546;12.292;2023-05-10T07:58:26;7.28;;;4.55;;
36457;SDS011;22480;50.546;12.292;2023-05-10T08:00:51;5.10;;;4.60;;
36457;SDS011;22480;50.546;12.292;2023-05-10T08:03:17;5.32;;;4.80;;
36457;SDS011;22480;50.546;12.292;2023-05-10T08:05:43;6.07;;;5.03;;
36457;SDS011;22480;50.546;12.292;2023-05-10T08:08:08;6.82;;;5.13;;
36457;SDS011;22480;50.546;12.292;2023-05-10T08:10:34;7.78;;;4.93;;
36457;SDS011;22480;50.546;12.292;2023-05-10T08:13:00;6.35;;;5.50;;
36457;SDS011;22480;50.546;12.292;2023-05-10T08:15:25;6.25;;;5.45;;
36457;SDS011;22480;50.546;12.292;2023-05-10T08:17:52;8.57;;;5.38;;
36457;SDS011;22480;50.546;12.292;2023-05-10T08:20:17;13.38;;;7.00;;
36457;SDS011;22480;50.546;12.292;2023-05-10T08:22:47;7.53;;;5.53;;
36457;SDS011;22480;50.546;12.292;2023-05-10T08:25:13;7.47;;;5.95;;
36457;SDS011;22480;50.546;12.292;2023-05-10T08:27:38;7.93;;;6.05;;
36457;SDS011;22480;50.546;12.292;2023-05-10T08:30:04;6.63;;;5.00;;
36457;SDS011;22480;50.546;12.292;2023-05-10T08:32:31;5.78;;;5.10;;
36457;SDS011;22480;50.546;12.292;2023-05-10T08:34:56;7.75;;;5.47;;
36457;SDS011;22480;50.546;12.292;2023-05-10T08:37:23;5.32;;;4.57;;
36457;SDS011;22480;50.546;12.292;2023-05-10T08:39:48;5.68;;;4.68;;
36457;SDS011;22480;50.546;12.292;2023-05-10T08:42:16;5.50;;;4.50;;
36457;SDS011;22480;50.546;12.292;2023-05-10T08:44:45;5.82;;;4.72;;
36457;SDS011;22480;50.546;12.292;2023-05-10T08:47:13;6.25;;;4.38;;
36457;SDS011;22480;50.546;12.292;2023-05-10T08:49:41;4.35;;;3.83;;
36457;SDS011;22480;50.546;12.292;2023-05-10T08:52:08;4.82;;;4.32;;
36457;SDS011;22480;50.546;12.292;2023-05-10T08:54:38;4.95;;;4.38;;
36457;SDS011;22480;50.546;12.292;2023-05-10T08:57:04;6.45;;;4.50;;
36457;SDS011;22480;50.546;12.292;2023-05-10T08:59:30;4.80;;;3.70;;
36457;SDS011;22480;50.546;12.292;2023-05-10T09:01:59;5.40;;;4.30;;
36457;SDS011;22480;50.546;12.292;2023-05-10T09:04:27;4.20;;;3.38;;
36457;SDS011;22480;50.546;12.292;2023-05-10T09:06:53;5.70;;;4.15;;
36457;SDS011;22480;50.546;12.292;2023-05-10T09:09:19;5.00;;;3.47;;
36457;SDS011;22480;50.546;12.292;2023-05-10T09:11:46;3.72;;;3.30;;
36457;SDS011;22480;50.546;12.292;2023-05-10T09:14:12;6.85;;;3.40;;
36457;SDS011;22480;50.546;12.292;2023-05-10T09:16:39;4.95;;;3.30;;
36457;SDS011;22480;50.546;12.292;2023-05-10T09:19:06;4.10;;;3.45;;
36457;SDS011;22480;50.546;12.292;2023-05-10T09:21:34;3.30;;;3.00;;
36457;SDS011;22480;50.546;12.292;2023-05-10T09:24:07;3.58;;;3.28;;
36457;SDS011;22480;50.546;12.292;2023-05-10T09:26:34;3.42;;;3.13;;
36457;SDS011;22480;50.546;12.292;2023-05-10T09:29:01;4.65;;;3.50;;
36457;SDS011;22480;50.546;12.292;2023-05-10T09:31:47;3.35;;;2.97;;
36457;SDS011;22480;50.546;12.292;2023-05-10T09:34:19;3.40;;;2.83;;
36457;SDS011;22480;50.546;12.292;2023-05-10T09:36:54;3.60;;;3.20;;
36457;SDS011;22480;50.546;12.292;2023-05-10T09:39:29;3.72;;;2.85;;
36457;SDS011;22480;50.546;12.292;2023-05-10T09:41:59;4.28;;;3.30;;
36457;SDS011;22480;50.546;12.292;2023-05-10T09:44:28;5.68;;;3.40;;
36457;SDS011;22480;50.546;12.292;2023-05-10T09:46:55;4.00;;;3.33;;
36457;SDS011;22480;50.546;12.292;2023-05-10T09:49:21;4.15;;;2.88;;
36457;SDS011;22480;50.546;12.292;2023-05-10T09:51:47;3.88;;;3.47;;
36457;SDS011;22480;50.546;12.292;2023-05-10T09:54:24;3.70;;;3.40;;
36457;SDS011;22480;50.546;12.292;2023-05-10T09:56:50;3.53;;;3.22;;
36457;SDS011;22480;50.546;12.292;2023-05-10T09:59:15;4.50;;;2.92;;
36457;SDS011;22480;50.546;12.292;2023-05-10T10:01:42;4.10;;;3.17;;
36457;SDS011;22480;50.546;12.292;2023-05-10T10:04:15;4.55;;;3.30;;
36457;SDS011;22480;50.546;12.292;2023-05-10T10:06:41;5.95;;;3.47;;
36457;SDS011;22480;50.546;12.292;2023-05-10T10:09:07;4.65;;;2.90;;
36457;SDS011;22480;50.546;12.292;2023-05-10T10:11:34;3.95;;;3.53;;
36457;SDS011;22480;50.546;12.292;2023-05-10T10:14:03;5.80;;;3.83;;
36457;SDS011;22480;50.546;12.292;2023-05-10T10:16:29;4.68;;;3.72;;
36457;SDS011;22480;50.546;12.292;2023-05-10T10:18:56;3.45;;;2.83;;
36457;SDS011;22480;50.546;12.292;2023-05-10T10:21:22;4.85;;;3.88;;
36457;SDS011;22480;50.546;12.292;2023-05-10T10:23:48;4.68;;;4.20;;
36457;SDS011;22480;50.546;12.292;2023-05-10T10:26:15;3.50;;;3.20;;
36457;SDS011;22480;50.546;12.292;2023-05-10T10:31:49;3.75;;;3.33;;
36457;SDS011;22480;50.546;12.292;2023-05-10T10:34:27;3.45;;;3.15;;
36457;SDS011;22480;50.546;12.292;2023-05-10T10:36:55;4.97;;;4.00;;
36457;SDS011;22480;50.546;12.292;2023-05-10T10:39:21;5.95;;;4.43;;
36457;SDS011;22480;50.546;12.292;2023-05-10T10:41:51;4.50;;;3.38;;
36457;SDS011;22480;50.546;12.292;2023-05-10T10:46:59;3.90;;;3.50;;
36457;SDS011;22480;50.546;12.292;2023-05-10T10:49:25;4.65;;;3.67;;
36457;SDS011;22480;50.546;12.292;2023-05-10T10:54:50;4.75;;;4.30;;
36457;SDS011;22480;50.546;12.292;2023-05-10T10:57:43;4.30;;;3.90;;
36457;SDS011;22480;50.546;12.292;2023-05-10T11:02:48;3.95;;;3.63;;
36457;SDS011;22480;50.546;12.292;2023-05-10T11:13:34;4.68;;;4.13;;
36457;SDS011;22480;50.546;12.292;2023-05-10T11:16:09;6.38;;;4.85;;
36457;SDS011;22480;50.546;12.292;2023-05-10T11:18:58;4.70;;;4.05;;
36457;SDS011;22480;50.546;12.292;2023-05-10T11:21:27;3.67;;;3.38;;
36457;SDS011;22480;50.546;12.292;2023-05-10T11:23:54;4.13;;;3.67;;
36457;SDS011;22480;50.546;12.292;2023-05-10T11:26:25;9.57;;;4.22;;
36457;SDS011;22480;50.546;12.292;2023-05-10T11:28:55;5.40;;;4.50;;
36457;SDS011;22480;50.546;12.292;2023-05-10T11:31:21;5.10;;;3.50;;
36457;SDS011;22480;50.546;12.292;2023-05-10T11:33:49;5.10;;;3.47;;
36457;SDS011;22480;50.546;12.292;2023-05-10T11:36:17;3.97;;;3.10;;
36457;SDS011;22480;50.546;12.292;2023-05-10T11:38:45;3.30;;;2.60;;
36457;SDS011;22480;50.546;12.292;2023-05-10T11:41:11;3.45;;;3.15;;
36457;SDS011;22480;50.546;12.292;2023-05-10T11:43:41;2.70;;;2.50;;
36457;SDS011;22480;50.546;12.292;2023-05-10T11:46:10;2.65;;;2.45;;
36457;SDS011;22480;50.546;12.292;2023-05-10T11:48:40;3.15;;;2.85;;
36457;SDS011;22480;50.546;12.292;2023-05-10T11:51:07;3.35;;;2.30;;
36457;SDS011;22480;50.546;12.292;2023-05-10T11:53:33;2.35;;;2.13;;
36457;SDS011;22480;50.546;12.292;2023-05-10T11:56:03;2.83;;;2.25;;
36457;SDS011;22480;50.546;12.292;2023-05-10T11:58:32;2.75;;;2.17;;
36457;SDS011;22480;50.546;12.292;2023-05-10T12:00:59;2.40;;;2.20;;
36457;SDS011;22480;50.546;12.292;2023-05-10T12:03:25;4.43;;;2.67;;
36457;SDS011;22480;50.546;12.292;2023-05-10T12:05:52;3.05;;;2.25;;
36457;SDS011;22480;50.546;12.292;2023-05-10T12:08:22;2.50;;;2.30;;
36457;SDS011;22480;50.546;12.292;2023-05-10T12:10:48;2.10;;;1.90;;
36457;SDS011;22480;50.546;12.292;2023-05-10T12:13:14;3.45;;;2.10;;
36457;SDS011;22480;50.546;12.292;2023-05-10T12:15:41;2.20;;;2.00;;
36457;SDS011;22480;50.546;12.292;2023-05-10T12:18:11;2.10;;;1.90;;
36457;SDS011;22480;50.546;12.292;2023-05-10T12:20:37;2.33;;;2.10;;
36457;SDS011;22480;50.546;12.292;2023-05-10T12:23:04;1.80;;;1.70;;
36457;SDS011;22480;50.546;12.292;2023-05-10T12:25:31;1.83;;;1.73;;
36457;SDS011;22480;50.546;12.292;2023-05-10T12:27:59;1.52;;;1.42;;
36457;SDS011;22480;50.546;12.292;2023-05-10T12:30:30;1.58;;;1.48;;
36457;SDS011;22480;50.546;12.292;2023-05-10T12:33:01;2.63;;;1.85;;
36457;SDS011;22480;50.546;12.292;2023-05-10T12:35:31;2.10;;;1.90;;
36457;SDS011;22480;50.546;12.292;2023-05-10T12:37:57;2.72;;;1.92;;
36457;SDS011;22480;50.546;12.292;2023-05-10T12:40:23;1.90;;;1.80;;
36457;SDS011;22480;50.546;12.292;2023-05-10T12:42:49;3.65;;;3.30;;
36457;SDS011;22480;50.546;12.292;2023-05-10T12:45:16;1.88;;;1.77;;
36457;SDS011;22480;50.546;12.292;2023-05-10T12:47:43;1.42;;;1.33;;
36457;SDS011;22480;50.546;12.292;2023-05-10T12:50:08;1.30;;;1.20;;
36457;SDS011;22480;50.546;12.292;2023-05-10T12:52:34;1.27;;;1.17;;
36457;SDS011;22480;50.546;12.292;2023-05-10T12:55:00;1.33;;;1.20;;
36457;SDS011;22480;50.546;12.292;2023-05-10T12:57:26;4.63;;;1.33;;
36457;SDS011;22480;50.546;12.292;2023-05-10T12:59:53;1.50;;;1.40;;
36457;SDS011;22480;50.546;12.292;2023-05-10T13:02:19;1.65;;;1.52;;
36457;SDS011;22480;50.546;12.292;2023-05-10T13:04:46;2.60;;;1.77;;
36457;SDS011;22480;50.546;12.292;2023-05-10T13:07:12;1.67;;;1.48;;
36457;SDS011;22480;50.546;12.292;2023-05-10T13:09:37;1.40;;;1.25;;
36457;SDS011;22480;50.546;12.292;2023-05-10T13:12:03;1.60;;;1.50;;
36457;SDS011;22480;50.546;12.292;2023-05-10T13:14:29;1.95;;;1.70;;
36457;SDS011;22480;50.546;12.292;2023-05-10T13:16:55;2.10;;;1.77;;
36457;SDS011;22480;50.546;12.292;2023-05-10T13:19:20;2.40;;;1.70;;
36457;SDS011;22480;50.546;12.292;2023-05-10T13:21:46;2.17;;;1.60;;
36457;SDS011;22480;50.546;12.292;2023-05-10T13:24:12;1.85;;;1.75;;
36457;SDS011;22480;50.546;12.292;2023-05-10T13:26:42;1.80;;;1.70;;
36457;SDS011;22480;50.546;12.292;2023-05-10T13:29:07;1.65;;;1.42;;
36457;SDS011;22480;50.546;12.292;2023-05-10T13:31:34;3.17;;;1.83;;
36457;SDS011;22480;50.546;12.292;2023-05-10T13:34:00;1.95;;;1.80;;
36457;SDS011;22480;50.546;12.292;2023-05-10T13:36:27;2.05;;;1.85;;
36457;SDS011;22480;50.546;12.292;2023-05-10T13:38:53;2.78;;;2.13;;
36457;SDS011;22480;50.546;12.292;2023-05-10T13:41:19;3.60;;;2.00;;
36457;SDS011;22480;50.546;12.292;2023-05-10T13:43:44;2.47;;;2.20;;
36457;SDS011;22480;50.546;12.292;2023-05-10T13:46:10;3.78;;;2.55;;
36457;SDS011;22480;50.546;12.292;2023-05-10T13:48:36;2.60;;;2.38;;
36457;SDS011;22480;50.546;12.292;2023-05-10T13:51:02;4.15;;;2.60;;
36457;SDS011;22480;50.546;12.292;2023-05-10T13:53:28;3.38;;;3.08;;
36457;SDS011;22480;50.546;12.292;2023-05-10T13:55:54;3.63;;;3.33;;
36457;SDS011;22480;50.546;12.292;2023-05-10T13:58:19;3.95;;;3.22;;
36457;SDS011;22480;50.546;12.292;2023-05-10T14:00:45;3.22;;;2.92;;
36457;SDS011;22480;50.546;12.292;2023-05-10T14:03:11;4.10;;;3.47;;
36457;SDS011;22480;50.546;12.292;2023-05-10T14:05:37;5.80;;;3.47;;
36457;SDS011;22480;50.546;12.292;2023-05-10T14:08:03;3.67;;;3.38;;
36457;SDS011;22480;50.546;12.292;2023-05-10T14:10:29;2.92;;;2.72;;
36457;SDS011;22480;50.546;12.292;2023-05-10T14:12:55;2.63;;;2.42;;
36457;SDS011;22480;50.546;12.292;2023-05-10T14:15:21;2.88;;;2.50;;
36457;SDS011;22480;50.546;12.292;2023-05-10T14:17:46;2.63;;;2.42;;
36457;SDS011;22480;50.546;12.292;2023-05-10T14:20:12;2.55;;;2.13;;
36457;SDS011;22480;50.546;12.292;2023-05-10T14:22:38;3.00;;;2.47;;
36457;SDS011;22480;50.546;12.292;2023-05-10T14:25:05;2.80;;;2.40;;
36457;SDS011;22480;50.546;12.292;2023-05-10T14:27:31;2.35;;;2.13;;
36457;SDS011;22480;50.546;12.292;2023-05-10T14:29:57;2.20;;;2.00;;
36457;SDS011;22480;50.546;12.292;2023-05-10T14:32:23;2.50;;;2.22;;
36457;SDS011;22480;50.546;12.292;2023-05-10T14:34:49;2.33;;;1.90;;
36457;SDS011;22480;50.546;12.292;2023-05-10T14:37:14;1.98;;;1.88;;
36457;SDS011;22480;50.546;12.292;2023-05-10T14:39:41;2.35;;;2.03;;
36457;SDS011;22480;50.546;12.292;2023-05-10T14:42:07;2.75;;;2.55;;
36457;SDS011;22480;50.546;12.292;2023-05-10T14:44:33;3.88;;;3.58;;
36457;SDS011;22480;50.546;12.292;2023-05-10T14:46:59;3.60;;;2.60;;
36457;SDS011;22480;50.546;12.292;2023-05-10T14:49:25;2.33;;;2.13;;
36457;SDS011;22480;50.546;12.292;2023-05-10T14:51:51;2.13;;;1.92;;
36457;SDS011;22480;50.546;12.292;2023-05-10T14:54:17;2.20;;;1.80;;
36457;SDS011;22480;50.546;12.292;2023-05-10T14:56:42;2.22;;;1.80;;
36457;SDS011;22480;50.546;12.292;2023-05-10T14:59:08;2.67;;;1.67;;
36457;SDS011;22480;50.546;12.292;2023-05-10T15:01:34;2.15;;;2.00;;
36457;SDS011;22480;50.546;12.292;2023-05-10T15:04:03;2.50;;;2.30;;
36457;SDS011;22480;50.546;12.292;2023-05-10T15:06:32;2.53;;;2.13;;
36457;SDS011;22480;50.546;12.292;2023-05-10T15:08:59;2.35;;;2.15;;